Bergamot Ace — ZGAS5 — position and weather

sailwx.info

Track history (hours):
 
Tides and Currents Weather Stations Pressure Air Temp Water Temp Dewpoint Dewpoint Depression Visibility Wind Speed Wind Dir Waves Ship Positions

Bergamot Ace

Last reported at 2017-Jul-28 10:07 UTC. Time now 2017-Jul-28 10:55 UTC.
Position N 34°40' E 134°49'.

Length 186 m; draft 7 m.

Type: Cargo ship. MMSI: 319740000.

Date/timePositionNaut miles runAvg speedWind from/ knotsBaromVisibWave heightAir tempDewpointWater temp
2017-Jul-28 10:07N 34°40' E 134°49'0 0.0
2017-Jul-28 09:55N 34°40' E 134°49'0 0.0
2017-Jul-28 09:19N 34°40' E 134°49'0 0.0
2017-Jul-28 08:37N 34°40' E 134°49'0 0.0
2017-Jul-28 08:25N 34°40' E 134°49'0 0.0
2017-Jul-28 07:55N 34°40' E 134°49'2 2.6
2017-Jul-28 07:19N 34°39' E 134°50'3 9.7
2017-Jul-28 06:59N 34°37' E 134°54'612.8
2017-Jul-28 06:29N 34°37' E 135°01'611.9
2017-Jul-28 06:00N 34°35' E 135°08'2 3.9
2017-Jul-28 05:30N 34°33' E 135°09'510.3
2017-Jul-28 04:59N 34°28' E 135°06'816.1
2017-Jul-28 04:31N 34°21' E 135°02'815.6
2017-Jul-28 04:00N 34°14' E 134°59'510.9
2017-Jul-28 03:30N 34°08' E 135°00'4 8.7
2017-Jul-28 03:00N 34°04' E 134°60'5 9.8
2017-Jul-28 02:30N 33°59' E 134°59'610.8
2017-Jul-28 01:59N 33°54' E 134°59'225 5.6
2017-Jul-26 10:11N 34°38' E 139°25'715.8
2017-Jul-26 09:46N 34°42' E 139°31'416.7
2017-Jul-26 09:30N 34°46' E 139°33'815.8
2017-Jul-26 09:00N 34°54' E 139°37'816.1
2017-Jul-26 08:30N 35°01' E 139°40'815.9
2017-Jul-26 08:00N 35°08' E 139°44'510.9
2017-Jul-26 07:30N 35°14' E 139°46'611.7
2017-Jul-26 07:00N 35°19' E 139°43'611.3
2017-Jul-26 06:30N 35°24' E 139°43'3 6.9
2017-Jul-26 06:00N 35°28' E 139°42'0 0.9
2017-Jul-26 05:27N 35°28' E 139°41'0 0.0
2017-Jul-26 05:00N 35°28' E 139°41'0 0.0
2017-Jul-26 04:30N 35°28' E 139°41'0 0.0
2017-Jul-26 04:00N 35°28' E 139°41'0 0.0
2017-Jul-26 03:30N 35°28' E 139°41'0 0.0
2017-Jul-26 03:00N 35°28' E 139°41'0 0.0
2017-Jul-26 02:30N 35°28' E 139°41'0 0.0
2017-Jul-26 02:00N 35°28' E 139°41'0 0.0
2017-Jul-26 01:30N 35°28' E 139°41'0 0.0
2017-Jul-26 01:00N 35°28' E 139°41'0 0.0
2017-Jul-26 00:30N 35°28' E 139°41'0 0.0
2017-Jul-26 00:00N 35°28' E 139°41'0 0.1
2017-Jul-25 23:30N 35°28' E 139°41'0 0.1
2017-Jul-25 23:00N 35°28' E 139°41'0 0.0
2017-Jul-25 22:30N 35°28' E 139°41'0 0.3
2017-Jul-25 22:00N 35°28' E 139°41'2 4.8
2017-Jul-25 21:30N 35°26' E 139°44'4 8.9
2017-Jul-25 21:00N 35°22' E 139°45'611.6
2017-Jul-25 20:30N 35°16' E 139°46'612.6
2017-Jul-25 20:00N 35°10' E 139°47'5 9.1
2017-Jul-25 19:30N 35°06' E 139°45'4 8.6
2017-Jul-25 19:00N 35°02' E 139°43'3 6.8
2017-Jul-25 18:30N 34°58' E 139°42'510.6
2017-Jul-25 18:00N 34°53' E 139°40'  
2017-Jul-23 13:51N 34°39' E 139°42'613.0
2017-Jul-23 13:24N 34°40' E 139°49'  
Track history (hours):
 
Tides and Currents Weather Stations Pressure Air Temp Water Temp Dewpoint Dewpoint Depression Visibility Wind Speed Wind Dir Waves Ship Positions

Bergamot Ace

Last reported at 2017-Jul-28 10:07 UTC. Time now 2017-Jul-28 10:55 UTC.
Position N 34°40' E 134°49'.

Length 186 m; draft 7 m.

Type: Cargo ship. MMSI: 319740000.

Date/timePositionNaut miles runAvg speedWind from/ knotsBaromVisibWave heightAir tempDewpointWater temp
2017-Jul-28 10:07N 34°40' E 134°49'0 0.0
2017-Jul-28 09:55N 34°40' E 134°49'0 0.0
2017-Jul-28 09:19N 34°40' E 134°49'0 0.0
2017-Jul-28 08:37N 34°40' E 134°49'0 0.0
2017-Jul-28 08:25N 34°40' E 134°49'0 0.0
2017-Jul-28 07:55N 34°40' E 134°49'2 2.6
2017-Jul-28 07:19N 34°39' E 134°50'3 9.7
2017-Jul-28 06:59N 34°37' E 134°54'612.8
2017-Jul-28 06:29N 34°37' E 135°01'611.9
2017-Jul-28 06:00N 34°35' E 135°08'2 3.9
2017-Jul-28 05:30N 34°33' E 135°09'510.3
2017-Jul-28 04:59N 34°28' E 135°06'816.1
2017-Jul-28 04:31N 34°21' E 135°02'815.6
2017-Jul-28 04:00N 34°14' E 134°59'510.9
2017-Jul-28 03:30N 34°08' E 135°00'4 8.7
2017-Jul-28 03:00N 34°04' E 134°60'5 9.8
2017-Jul-28 02:30N 33°59' E 134°59'610.8
2017-Jul-28 01:59N 33°54' E 134°59'225 5.6
2017-Jul-26 10:11N 34°38' E 139°25'715.8
2017-Jul-26 09:46N 34°42' E 139°31'416.7
2017-Jul-26 09:30N 34°46' E 139°33'815.8
2017-Jul-26 09:00N 34°54' E 139°37'816.1
2017-Jul-26 08:30N 35°01' E 139°40'815.9
2017-Jul-26 08:00N 35°08' E 139°44'510.9
2017-Jul-26 07:30N 35°14' E 139°46'611.7
2017-Jul-26 07:00N 35°19' E 139°43'611.3
2017-Jul-26 06:30N 35°24' E 139°43'3 6.9
2017-Jul-26 06:00N 35°28' E 139°42'0 0.9
2017-Jul-26 05:27N 35°28' E 139°41'0 0.0
2017-Jul-26 05:00N 35°28' E 139°41'0 0.0
2017-Jul-26 04:30N 35°28' E 139°41'0 0.0
2017-Jul-26 04:00N 35°28' E 139°41'0 0.0
2017-Jul-26 03:30N 35°28' E 139°41'0 0.0
2017-Jul-26 03:00N 35°28' E 139°41'0 0.0
2017-Jul-26 02:30N 35°28' E 139°41'0 0.0
2017-Jul-26 02:00N 35°28' E 139°41'0 0.0
2017-Jul-26 01:30N 35°28' E 139°41'0 0.0
2017-Jul-26 01:00N 35°28' E 139°41'0 0.0
2017-Jul-26 00:30N 35°28' E 139°41'0 0.0
2017-Jul-26 00:00N 35°28' E 139°41'0 0.1
2017-Jul-25 23:30N 35°28' E 139°41'0 0.1
2017-Jul-25 23:00N 35°28' E 139°41'0 0.0
2017-Jul-25 22:30N 35°28' E 139°41'0 0.3
2017-Jul-25 22:00N 35°28' E 139°41'2 4.8
2017-Jul-25 21:30N 35°26' E 139°44'4 8.9
2017-Jul-25 21:00N 35°22' E 139°45'611.6
2017-Jul-25 20:30N 35°16' E 139°46'612.6
2017-Jul-25 20:00N 35°10' E 139°47'5 9.1
2017-Jul-25 19:30N 35°06' E 139°45'4 8.6
2017-Jul-25 19:00N 35°02' E 139°43'3 6.8
2017-Jul-25 18:30N 34°58' E 139°42'510.6
2017-Jul-25 18:00N 34°53' E 139°40'  
2017-Jul-23 13:51N 34°39' E 139°42'613.0
2017-Jul-23 13:24N 34°40' E 139°49'  

Dump ship's entire track history